createdAt,value
2022-12-24T00:01:00.767Z,99661.63
2022-12-24T00:03:27.649Z,99639.84
2022-12-24T00:05:54.442Z,99647.09
2022-12-24T00:08:21.198Z,99640.31
2022-12-24T00:10:52.711Z,99636.44
2022-12-24T00:13:19.815Z,99625.91
2022-12-24T00:15:46.797Z,99607.66
2022-12-24T00:18:13.600Z,99633.72
2022-12-24T00:20:40.546Z,99623.13
2022-12-24T00:23:07.269Z,99626.09
2022-12-24T00:25:33.957Z,99613.09
2022-12-24T00:28:00.671Z,99630.56
2022-12-24T00:30:27.473Z,99624.88
2022-12-24T00:32:54.233Z,99636.19
2022-12-24T00:35:20.936Z,99645.22
2022-12-24T00:37:49.236Z,99621.25
2022-12-24T00:40:17.125Z,99636.34
2022-12-24T00:42:44.023Z,99619.28
2022-12-24T00:45:11.772Z,99632.50
2022-12-24T00:47:38.556Z,99642.75
2022-12-24T00:50:06.062Z,99633.13
2022-12-24T00:52:32.799Z,99590.97
2022-12-24T00:54:59.489Z,99618.06
2022-12-24T00:57:26.490Z,99618.00
2022-12-24T00:59:53.173Z,99606.44
2022-12-24T01:02:19.969Z,99585.56
2022-12-24T01:05:05.327Z,99622.78
2022-12-24T01:07:32.236Z,99629.78
2022-12-24T01:09:58.926Z,99649.94
2022-12-24T01:12:25.871Z,99643.81
2022-12-24T01:14:52.626Z,99593.31
2022-12-24T01:17:19.525Z,99648.44
2022-12-24T01:19:46.290Z,99629.13
2022-12-24T01:22:13.033Z,99635.25
2022-12-24T01:24:43.038Z,99592.91
2022-12-24T01:27:09.760Z,99597.56
2022-12-24T01:29:36.464Z,99619.41
2022-12-24T01:32:03.716Z,99610.03
2022-12-24T01:34:30.421Z,99603.34
2022-12-24T01:36:57.107Z,99625.13
2022-12-24T01:39:23.842Z,99621.53
2022-12-24T01:42:09.099Z,99615.19
2022-12-24T01:44:40.045Z,99626.63
2022-12-24T01:47:12.784Z,99641.28
2022-12-24T01:49:48.269Z,99628.41
2022-12-24T01:52:33.304Z,99631.56
2022-12-24T01:55:10.557Z,99621.00
2022-12-24T01:57:42.963Z,99628.75
2022-12-24T02:00:13.415Z,99643.88
2022-12-24T02:02:43.513Z,99641.19
2022-12-24T02:05:15.046Z,99612.94
2022-12-24T02:07:43.146Z,99646.94
2022-12-24T02:10:12.599Z,99609.25
2022-12-24T02:12:40.614Z,99611.41
2022-12-24T02:15:10.522Z,99642.81
2022-12-24T02:17:49.456Z,99633.50
2022-12-24T02:20:31.921Z,99639.81
2022-12-24T02:23:26.423Z,99631.84
2022-12-24T02:26:11.339Z,99622.53
2022-12-24T02:29:15.563Z,99617.38
2022-12-24T02:31:52.307Z,99612.13
2022-12-24T02:34:23.382Z,99609.31
2022-12-24T02:37:15.280Z,99598.72
2022-12-24T02:40:15.697Z,99620.03
2022-12-24T02:42:50.872Z,99613.38
2022-12-24T02:45:22.798Z,99597.22
2022-12-24T02:47:51.579Z,99603.09
2022-12-24T02:50:18.948Z,99609.88
2022-12-24T02:52:47.261Z,99607.91
2022-12-24T02:55:16.732Z,99577.94
2022-12-24T02:58:04.754Z,99617.78
2022-12-24T03:00:41.571Z,99604.91
2022-12-24T03:03:33.545Z,99605.69
2022-12-24T03:06:27.479Z,99585.00
2022-12-24T03:09:02.130Z,99602.19
2022-12-24T03:11:29.288Z,99589.47
2022-12-24T03:13:59.236Z,99587.31
2022-12-24T03:16:28.234Z,99597.28
2022-12-24T03:18:57.802Z,99600.00
2022-12-24T03:21:29.366Z,99611.59
2022-12-24T03:23:56.754Z,99570.69
2022-12-24T03:26:25.730Z,99619.81
2022-12-24T03:28:52.589Z,99622.25
2022-12-24T03:31:19.864Z,99591.88
2022-12-24T03:33:47.573Z,99546.53
2022-12-24T03:36:14.638Z,99573.78
2022-12-24T03:38:41.736Z,99584.56
2022-12-24T03:41:08.472Z,99587.22
2022-12-24T03:43:35.484Z,99568.72
2022-12-24T03:46:08.346Z,99571.94
2022-12-24T03:48:36.093Z,99556.41
2022-12-24T03:51:03.648Z,99590.19
2022-12-24T03:53:30.762Z,99567.31
2022-12-24T03:55:57.572Z,99568.25
2022-12-24T03:58:24.221Z,99552.34
2022-12-24T04:00:52.433Z,99550.78
2022-12-24T04:03:19.215Z,99527.56
2022-12-24T04:05:45.875Z,99546.66
2022-12-24T04:08:12.575Z,99564.25
2022-12-24T04:10:39.323Z,99550.72
2022-12-24T04:13:06.014Z,99561.78
2022-12-24T04:15:32.716Z,99565.22
2022-12-24T04:17:59.399Z,99533.69
2022-12-24T04:20:26.117Z,99542.00
2022-12-24T04:22:53.377Z,99531.28
2022-12-24T04:25:20.037Z,99562.47
2022-12-24T04:27:46.687Z,99562.53
2022-12-24T04:30:13.513Z,99551.66
2022-12-24T04:32:40.178Z,99555.56
2022-12-24T04:35:07.228Z,99560.16
2022-12-24T04:37:34.385Z,99539.34
2022-12-24T04:40:01.087Z,99555.56
2022-12-24T04:42:27.723Z,99566.75
2022-12-24T04:44:54.332Z,99537.16
2022-12-24T04:47:21.017Z,99555.34
2022-12-24T04:49:47.660Z,99512.63
2022-12-24T04:52:14.396Z,99523.38
2022-12-24T04:54:41.098Z,99544.94
2022-12-24T04:57:07.765Z,99511.53
2022-12-24T04:59:34.465Z,99521.22
2022-12-24T05:02:01.305Z,99531.56
2022-12-24T05:04:28.115Z,99514.50
2022-12-24T05:06:54.841Z,99528.84
2022-12-24T05:09:21.600Z,99523.47
2022-12-24T05:11:48.313Z,99508.66
2022-12-24T05:14:14.958Z,99466.16
2022-12-24T05:16:41.691Z,99489.72
2022-12-24T05:19:08.367Z,99492.22
2022-12-24T05:21:35.072Z,99478.13
2022-12-24T05:24:19.992Z,99518.69
2022-12-24T05:26:50.417Z,99532.53
2022-12-24T05:29:17.784Z,99540.44
2022-12-24T05:31:45.314Z,99522.13
2022-12-24T05:34:14.999Z,99533.53
2022-12-24T05:36:41.874Z,99536.75
2022-12-24T05:39:15.135Z,99531.81
2022-12-24T05:41:43.013Z,99520.47
2022-12-24T05:44:09.739Z,99505.53
2022-12-24T05:46:36.484Z,99505.59
2022-12-24T05:49:03.206Z,99505.81
2022-12-24T05:51:29.909Z,99527.28
2022-12-24T05:53:56.620Z,99496.78
2022-12-24T05:56:25.073Z,99525.41
2022-12-24T05:58:53.716Z,99492.19
2022-12-24T06:01:22.090Z,99516.44
2022-12-24T06:03:50.091Z,99455.41
2022-12-24T06:06:22.997Z,99493.38
2022-12-24T06:08:51.087Z,99510.75
2022-12-24T06:11:20.541Z,99490.41
2022-12-24T06:13:47.236Z,99475.47
2022-12-24T06:16:16.836Z,99498.44
2022-12-24T06:18:44.410Z,99497.84
2022-12-24T06:21:12.506Z,99485.81
2022-12-24T06:23:40.958Z,99482.47
2022-12-24T06:26:09.982Z,99484.13
2022-12-24T06:28:38.054Z,99441.44
2022-12-24T06:31:06.772Z,99481.31
2022-12-24T06:33:34.496Z,99465.31
2022-12-24T06:36:01.425Z,99464.19
2022-12-24T06:38:31.337Z,99442.72
2022-12-24T06:40:58.386Z,99418.78
2022-12-24T06:43:25.263Z,99429.28
2022-12-24T06:45:53.568Z,99422.38
2022-12-24T06:48:20.364Z,99444.56
2022-12-24T06:50:47.162Z,99430.72
2022-12-24T06:53:13.901Z,99437.00
2022-12-24T06:55:40.541Z,99432.22
2022-12-24T06:58:07.273Z,99447.84
2022-12-24T07:00:34.014Z,99441.75
2022-12-24T07:03:00.970Z,99448.78
2022-12-24T07:05:27.867Z,99424.88
2022-12-24T07:07:54.695Z,99431.69
2022-12-24T07:10:22.315Z,99454.50
2022-12-24T07:12:49.057Z,99417.97
2022-12-24T07:15:16.371Z,99418.53
2022-12-24T07:17:43.528Z,99426.94
2022-12-24T07:20:14.179Z,99427.66
2022-12-24T07:22:40.870Z,99415.41
2022-12-24T07:25:07.940Z,99443.44
2022-12-24T07:27:34.658Z,99413.47
2022-12-24T07:30:01.413Z,99438.22
2022-12-24T07:32:28.087Z,99438.88
2022-12-24T07:34:54.943Z,99402.81
2022-12-24T07:37:21.686Z,99395.84
2022-12-24T07:39:48.314Z,99430.66
2022-12-24T07:42:15.008Z,99395.16
2022-12-24T07:44:41.671Z,99433.22
2022-12-24T07:47:08.547Z,99419.22
2022-12-24T07:49:36.444Z,99390.31
2022-12-24T07:52:04.243Z,99403.66
2022-12-24T07:54:31.073Z,99417.69
2022-12-24T07:56:57.798Z,99396.81
2022-12-24T07:59:24.564Z,99425.09
2022-12-24T08:01:51.315Z,99400.88
2022-12-24T08:04:18.277Z,99383.66
2022-12-24T08:06:44.952Z,99393.91
2022-12-24T08:09:11.649Z,99381.03
2022-12-24T08:11:38.356Z,99384.13
2022-12-24T08:14:05.000Z,99427.47
2022-12-24T08:16:31.812Z,99435.16
2022-12-24T08:18:58.518Z,99434.31
2022-12-24T08:21:25.264Z,99396.84
2022-12-24T08:23:51.931Z,99444.97
2022-12-24T08:26:18.609Z,99419.53
2022-12-24T08:28:45.288Z,99443.03
2022-12-24T08:31:11.957Z,99413.34
2022-12-24T08:33:38.731Z,99421.16
2022-12-24T08:36:05.709Z,99431.34
2022-12-24T08:38:32.846Z,99427.72
2022-12-24T08:40:59.566Z,99467.63
2022-12-24T08:43:27.024Z,99455.94
2022-12-24T08:45:54.188Z,99452.91
2022-12-24T08:48:21.009Z,99474.44
2022-12-24T08:50:47.835Z,99444.31
2022-12-24T08:53:14.520Z,99433.88
2022-12-24T08:55:41.244Z,99442.28
2022-12-24T08:58:08.054Z,99430.00
2022-12-24T09:00:34.997Z,99449.66
2022-12-24T09:03:01.814Z,99433.38
2022-12-24T09:05:29.185Z,99425.09
2022-12-24T09:07:55.912Z,99450.66
2022-12-24T09:10:23.310Z,99449.66
2022-12-24T09:12:51.147Z,99443.19
2022-12-24T09:15:18.076Z,99454.03
2022-12-24T09:17:44.853Z,99431.22
2022-12-24T09:20:11.683Z,99433.69
2022-12-24T09:22:39.841Z,99446.28
2022-12-24T09:25:07.198Z,99481.63
2022-12-24T09:27:34.685Z,99456.81
2022-12-24T09:30:01.451Z,99461.53
2022-12-24T09:32:28.294Z,99468.88
2022-12-24T09:34:55.004Z,99468.22
2022-12-24T09:37:21.709Z,99456.75
2022-12-24T09:39:48.427Z,99423.00
2022-12-24T09:42:51.577Z,99467.19
2022-12-24T09:45:18.231Z,99490.16
2022-12-24T09:47:54.571Z,99427.25
2022-12-24T09:50:27.578Z,99493.66
2022-12-24T09:52:55.840Z,99463.03
2022-12-24T09:55:45.859Z,99458.03
2022-12-24T09:58:21.806Z,99438.06
2022-12-24T10:00:50.293Z,99508.09
2022-12-24T10:03:18.449Z,99515.22
2022-12-24T10:05:57.852Z,99505.84
2022-12-24T10:08:33.397Z,99506.25
2022-12-24T10:11:15.590Z,99489.50
2022-12-24T10:14:01.317Z,99503.91
2022-12-24T10:16:28.031Z,99502.66
2022-12-24T10:19:26.429Z,99470.00
2022-12-24T10:21:59.467Z,99508.44
2022-12-24T10:24:35.469Z,99471.91
2022-12-24T10:27:16.263Z,99490.41
2022-12-24T10:29:47.842Z,99481.97
2022-12-24T10:32:28.880Z,99512.34
2022-12-24T10:35:02.249Z,99506.06
2022-12-24T10:37:30.449Z,99503.66
2022-12-24T10:40:02.688Z,99467.47
2022-12-24T10:42:50.982Z,99474.38
2022-12-24T10:45:21.791Z,99437.59
2022-12-24T10:47:52.881Z,99468.53
2022-12-24T10:50:29.920Z,99481.41
2022-12-24T10:53:07.275Z,99448.16
2022-12-24T10:55:33.971Z,99484.44
2022-12-24T10:58:13.523Z,99509.88
2022-12-24T11:00:40.928Z,99465.63
2022-12-24T11:03:13.512Z,99505.56
2022-12-24T11:05:41.055Z,99457.66
2022-12-24T11:08:13.573Z,99502.41
2022-12-24T11:10:44.570Z,99432.50
2022-12-24T11:13:53.553Z,99493.03
2022-12-24T11:16:30.005Z,99492.41
2022-12-24T11:18:59.293Z,99474.03
2022-12-24T11:21:29.459Z,99469.34
2022-12-24T11:23:59.010Z,99483.72
2022-12-24T11:26:29.421Z,99507.38
2022-12-24T11:29:23.872Z,99508.59
2022-12-24T11:31:52.843Z,99517.13
2022-12-24T11:37:20.090Z,99503.59
2022-12-24T11:39:51.195Z,99487.84
2022-12-24T11:42:34.771Z,99450.00
2022-12-24T11:45:05.930Z,99509.53
2022-12-24T11:47:40.893Z,99474.94
2022-12-24T11:50:32.152Z,99500.81
2022-12-24T11:53:50.167Z,99509.22
2022-12-24T11:56:37.834Z,99499.53
2022-12-24T11:59:29.613Z,99473.88
2022-12-24T12:02:05.304Z,99492.41
2022-12-24T12:04:36.124Z,99504.50
2022-12-24T12:07:02.852Z,99513.19
2022-12-24T12:09:33.798Z,99479.06
2022-12-24T12:12:16.631Z,99490.78
2022-12-24T12:14:48.294Z,99485.38
2022-12-24T12:17:54.728Z,99474.31
2022-12-24T12:20:35.443Z,99512.50
2022-12-24T12:23:14.655Z,99513.13
2022-12-24T12:25:58.125Z,99461.06
2022-12-24T12:28:36.762Z,99509.59
2022-12-24T12:31:16.400Z,99485.09
2022-12-24T12:33:52.196Z,99478.31
2022-12-24T12:36:26.860Z,99533.63
2022-12-24T12:38:53.588Z,99510.28
2022-12-24T12:41:45.180Z,99487.66
2022-12-24T12:44:15.054Z,99518.94
2022-12-24T12:46:48.715Z,99525.00
2022-12-24T12:49:21.358Z,99523.94
2022-12-24T12:52:24.117Z,99518.06
2022-12-24T12:55:32.421Z,99478.47
2022-12-24T12:58:06.854Z,99479.81
2022-12-24T13:00:38.456Z,99491.44
2022-12-24T13:03:32.895Z,99514.97
2022-12-24T13:06:18.520Z,99505.38
2022-12-24T13:09:03.948Z,99500.78
2022-12-24T13:11:30.561Z,99511.50
2022-12-24T13:14:00.176Z,99514.34
2022-12-24T13:16:43.062Z,99498.06
2022-12-24T13:19:45.911Z,99479.75
2022-12-24T13:22:17.858Z,99512.88
2022-12-24T13:24:52.782Z,99485.25
2022-12-24T13:27:25.052Z,99452.59
2022-12-24T13:30:18.074Z,99488.78
2022-12-24T13:32:55.203Z,99473.59
2022-12-24T13:35:21.803Z,99500.38
2022-12-24T13:37:49.884Z,99454.44
2022-12-24T13:40:26.495Z,99479.72
2022-12-24T13:42:59.379Z,99491.94
2022-12-24T13:45:29.006Z,99490.88
2022-12-24T13:48:07.970Z,99489.66
2022-12-24T13:51:16.364Z,99476.19
2022-12-24T13:53:45.881Z,99420.41
2022-12-24T13:56:12.498Z,99467.63
2022-12-24T13:58:47.365Z,99454.34
2022-12-24T14:01:19.003Z,99479.97
2022-12-24T14:03:47.977Z,99462.00
2022-12-24T14:06:40.898Z,99462.72
2022-12-24T14:09:16.552Z,99420.06
2022-12-24T14:12:01.693Z,99475.41
2022-12-24T14:14:35.009Z,99439.47
2022-12-24T14:17:06.085Z,99453.59
2022-12-24T14:19:43.131Z,99472.16
2022-12-24T14:22:28.553Z,99481.66
2022-12-24T14:25:16.546Z,99430.84
2022-12-24T14:27:55.000Z,99432.63
2022-12-24T14:30:25.634Z,99461.38
2022-12-24T14:32:53.701Z,99460.34
2022-12-24T14:35:24.640Z,99474.88
2022-12-24T14:38:08.139Z,99434.66
2022-12-24T14:40:39.069Z,99475.13
2022-12-24T14:43:17.915Z,99432.25
2022-12-24T14:46:07.396Z,99427.19
2022-12-24T14:48:42.918Z,99443.41
2022-12-24T14:51:21.568Z,99466.75
2022-12-24T14:54:30.822Z,99460.25
2022-12-24T14:57:14.425Z,99446.06
2022-12-24T15:00:02.440Z,99442.81
2022-12-24T15:02:51.287Z,99427.94
2022-12-24T15:05:20.902Z,99462.34
2022-12-24T15:07:56.931Z,99461.72
2022-12-24T15:10:28.988Z,99471.31
2022-12-24T15:12:58.503Z,99413.16
2022-12-24T15:15:25.382Z,99420.41
2022-12-24T15:17:53.034Z,99427.94
2022-12-24T15:20:24.034Z,99455.19
2022-12-24T15:22:54.099Z,99460.13
2022-12-24T15:25:28.506Z,99458.34
2022-12-24T15:27:55.865Z,99456.72
2022-12-24T15:30:29.315Z,99414.97
2022-12-24T15:32:58.162Z,99437.41
2022-12-24T15:35:34.879Z,99435.56
2022-12-24T15:38:06.588Z,99384.84
2022-12-24T15:40:34.942Z,99414.22
2022-12-24T15:43:02.194Z,99409.84
2022-12-24T15:45:39.414Z,99406.50
2022-12-24T15:48:12.236Z,99377.69
2022-12-24T15:50:46.013Z,99381.78
2022-12-24T15:53:22.060Z,99425.94
2022-12-24T15:56:07.897Z,99419.50
2022-12-24T15:58:42.968Z,99424.56
2022-12-24T16:01:10.033Z,99414.59
2022-12-24T16:03:39.846Z,99378.66
2022-12-24T16:06:11.908Z,99395.47
2022-12-24T16:08:40.887Z,99359.47
2022-12-24T16:11:24.139Z,99405.47
2022-12-24T16:13:50.890Z,99393.91
2022-12-24T16:16:30.570Z,99383.78
2022-12-24T16:18:59.830Z,99343.59
2022-12-24T16:21:26.426Z,99392.22
2022-12-24T16:23:56.207Z,99352.41
2022-12-24T16:26:23.832Z,99416.94
2022-12-24T16:28:50.590Z,99351.03
2022-12-24T16:31:30.399Z,99363.34
2022-12-24T16:33:59.066Z,99395.22
2022-12-24T16:36:26.184Z,99346.97
2022-12-24T16:39:11.774Z,99344.41
2022-12-24T16:41:58.448Z,99361.06
2022-12-24T16:44:25.174Z,99353.75
2022-12-24T16:46:53.943Z,99371.28
2022-12-24T16:49:22.282Z,99328.44
2022-12-24T16:51:49.015Z,99358.06
2022-12-24T16:54:15.994Z,99305.47
2022-12-24T16:56:44.216Z,99339.50
2022-12-24T16:59:17.390Z,99312.19
2022-12-24T17:01:44.343Z,99361.25
2022-12-24T17:04:11.486Z,99326.38
2022-12-24T17:06:38.243Z,99309.47
2022-12-24T17:09:05.622Z,99317.34
2022-12-24T17:11:32.424Z,99345.97
2022-12-24T17:14:03.090Z,99303.84
2022-12-24T17:16:34.140Z,99317.75
2022-12-24T17:19:01.008Z,99286.72
2022-12-24T17:21:27.754Z,99315.38
2022-12-24T17:23:54.457Z,99268.53
2022-12-24T17:26:21.358Z,99304.69
2022-12-24T17:28:48.083Z,99283.09
2022-12-24T17:31:16.584Z,99332.84
2022-12-24T17:33:44.129Z,99269.25
2022-12-24T17:36:11.034Z,99254.81
2022-12-24T17:38:37.824Z,99293.16
2022-12-24T17:41:10.741Z,99252.41
2022-12-24T17:43:38.096Z,99320.38
2022-12-24T17:46:13.305Z,99306.78
2022-12-24T17:48:40.056Z,99286.94
2022-12-24T17:51:09.627Z,99288.00
2022-12-24T17:53:38.595Z,99211.16
2022-12-24T17:56:06.763Z,99281.06
2022-12-24T17:58:33.841Z,99275.47
2022-12-24T18:01:01.519Z,99239.88
2022-12-24T18:03:28.982Z,99238.75
2022-12-24T18:05:55.780Z,99265.47
2022-12-24T18:08:22.522Z,99237.00
2022-12-24T18:10:49.228Z,99226.16
2022-12-24T18:13:19.498Z,99235.41
2022-12-24T18:15:46.590Z,99196.84
2022-12-24T18:18:13.335Z,99224.88
2022-12-24T18:20:46.212Z,99178.97
2022-12-24T18:23:13.677Z,99236.22
2022-12-24T18:25:40.333Z,99207.97
2022-12-24T18:28:07.049Z,99191.13
2022-12-24T18:30:33.779Z,99204.91
2022-12-24T18:33:01.162Z,99215.78
2022-12-24T18:35:28.335Z,99189.19
2022-12-24T18:37:55.148Z,99173.59
2022-12-24T18:40:21.886Z,99170.31
2022-12-24T18:42:48.673Z,99219.66
2022-12-24T18:45:15.397Z,99200.50
2022-12-24T18:47:42.151Z,99187.38
2022-12-24T18:50:09.165Z,99164.16
2022-12-24T18:52:35.984Z,99179.41
2022-12-24T18:55:02.667Z,99165.22
2022-12-24T18:57:30.804Z,99134.69
2022-12-24T18:59:57.612Z,99139.91
2022-12-24T19:02:24.495Z,99167.50
2022-12-24T19:04:51.313Z,99119.69
2022-12-24T19:07:18.032Z,99093.53
2022-12-24T19:09:48.328Z,99131.00
2022-12-24T19:12:15.846Z,99134.19
2022-12-24T19:14:43.195Z,99128.72
2022-12-24T19:17:10.018Z,99102.06
2022-12-24T19:19:36.805Z,99137.94
2022-12-24T19:22:03.652Z,99120.03
2022-12-24T19:24:30.473Z,99154.13
2022-12-24T19:26:57.320Z,99110.03
2022-12-24T19:29:24.131Z,99089.66
2022-12-24T19:31:51.025Z,99116.16
2022-12-24T19:34:17.902Z,99095.84
2022-12-24T19:36:44.689Z,99091.97
2022-12-24T19:39:11.454Z,99074.28
2022-12-24T19:41:38.186Z,99119.50
2022-12-24T19:44:05.097Z,99061.22
2022-12-24T19:46:34.563Z,99107.78
2022-12-24T19:49:05.294Z,99104.81
2022-12-24T19:51:32.617Z,99101.31
2022-12-24T19:54:00.804Z,98993.97
2022-12-24T19:56:30.965Z,99070.72
2022-12-24T19:58:58.320Z,99041.34
2022-12-24T20:01:27.600Z,99022.94
2022-12-24T20:03:55.068Z,99064.53
2022-12-24T20:06:25.151Z,99049.16
2022-12-24T20:08:52.054Z,99029.81
2022-12-24T20:11:20.987Z,99003.78
2022-12-24T20:13:47.720Z,99008.91
2022-12-24T20:16:18.582Z,98982.50
2022-12-24T20:18:51.948Z,99029.75
2022-12-24T20:21:18.687Z,99032.16
2022-12-24T20:23:45.370Z,99020.72
2022-12-24T20:26:14.731Z,99012.31
2022-12-24T20:28:42.008Z,99006.59
2022-12-24T20:31:20.361Z,99000.38
2022-12-24T20:33:47.860Z,99019.34
2022-12-24T20:36:17.029Z,99012.78
2022-12-24T20:38:44.059Z,98994.09
2022-12-24T20:41:12.364Z,98990.59
2022-12-24T20:43:47.133Z,98996.56
2022-12-24T20:46:15.063Z,99022.50
2022-12-24T20:48:41.909Z,99024.66
2022-12-24T20:51:11.523Z,99023.34
2022-12-24T20:53:39.308Z,99005.44
2022-12-24T20:56:06.343Z,98977.69
2022-12-24T20:58:33.556Z,98994.34
2022-12-24T21:01:00.339Z,98960.34
2022-12-24T21:03:27.109Z,98951.59
2022-12-24T21:05:53.781Z,98976.59
2022-12-24T21:08:20.460Z,98954.97
2022-12-24T21:10:47.404Z,98996.34
2022-12-24T21:13:14.096Z,98988.31
2022-12-24T21:15:40.946Z,98956.78
2022-12-24T21:18:12.214Z,98994.22
2022-12-24T21:20:41.796Z,98981.63
2022-12-24T21:23:09.947Z,98981.13
2022-12-24T21:25:38.030Z,98972.25
2022-12-24T21:28:04.957Z,98987.31
2022-12-24T21:30:32.420Z,98964.84
2022-12-24T21:32:59.256Z,98955.84
2022-12-24T21:35:26.005Z,98968.78
2022-12-24T21:37:52.715Z,98940.69
2022-12-24T21:40:19.424Z,98959.25
2022-12-24T21:42:46.108Z,98931.56
2022-12-24T21:45:12.909Z,98965.66
2022-12-24T21:47:39.614Z,98931.00
2022-12-24T21:50:31.629Z,98932.28
2022-12-24T21:53:18.812Z,98955.72
2022-12-24T21:55:45.518Z,98982.72
2022-12-24T21:58:12.487Z,98919.38
2022-12-24T22:00:39.469Z,98911.00
2022-12-24T22:03:06.685Z,98952.44
2022-12-24T22:05:35.213Z,98921.41
2022-12-24T22:08:20.740Z,98958.56
2022-12-24T22:11:05.972Z,98944.88
2022-12-24T22:13:32.855Z,98951.41
2022-12-24T22:15:59.539Z,98948.97
2022-12-24T22:18:26.846Z,98966.19
2022-12-24T22:20:53.769Z,98937.13
2022-12-24T22:23:20.441Z,98967.66
2022-12-24T22:25:47.544Z,98906.97
2022-12-24T22:28:14.545Z,98967.97
2022-12-24T22:30:42.890Z,98952.97
2022-12-24T22:33:10.311Z,98961.94
2022-12-24T22:35:41.244Z,98963.75
2022-12-24T22:38:09.327Z,98934.00
2022-12-24T22:40:38.707Z,98946.16
2022-12-24T22:43:05.581Z,98978.13
2022-12-24T22:45:32.444Z,98948.53
2022-12-24T22:47:59.090Z,98950.75
2022-12-24T22:50:25.783Z,98908.69
2022-12-24T22:52:54.012Z,98947.41
2022-12-24T22:55:21.304Z,98937.41
2022-12-24T22:57:48.763Z,98939.03
2022-12-24T23:00:36.969Z,98922.09
2022-12-24T23:03:04.772Z,98915.16
2022-12-24T23:05:31.670Z,98930.75
2022-12-24T23:07:58.717Z,98907.13
2022-12-24T23:10:25.401Z,98922.78
2022-12-24T23:13:14.782Z,98913.81
2022-12-24T23:15:42.149Z,98919.50
2022-12-24T23:18:09.404Z,98933.72
2022-12-24T23:20:41.011Z,98943.06
2022-12-24T23:23:07.914Z,98922.97
2022-12-24T23:25:35.320Z,98928.16
2022-12-24T23:28:02.041Z,98907.78
2022-12-24T23:30:29.068Z,98913.84
2022-12-24T23:32:55.848Z,98908.00
2022-12-24T23:35:22.746Z,98906.13
2022-12-24T23:37:49.490Z,98922.03
2022-12-24T23:40:16.313Z,98929.00
2022-12-24T23:42:43.028Z,98939.56
2022-12-24T23:45:10.128Z,98932.69
2022-12-24T23:47:36.782Z,98947.09
2022-12-24T23:50:06.290Z,98928.31
2022-12-24T23:52:33.904Z,98938.25
2022-12-24T23:55:00.617Z,98920.56
2022-12-24T23:57:27.387Z,98922.44
2022-12-24T23:59:54.263Z,98934.44
